Time;durP1;ratioP1;P1;durP2;ratioP2;P2;SDS_P1;SDS_P2;PMS_P1;PMS_P2;Temp;Humidity;BMP_temperature;BMP_pressure;BME280_temperature;BME280_humidity;BME280_pressure;Samples;Min_cycle;Max_cycle;Signal;HPM_P1;HPM_P2
2022/07/08 00:00:36;;;;;;;21.43;2.67;;;;;;;24.46;55.60;100115.72;7311542;19;129494;-40
2022/07/08 00:03:02;;;;;;;21.33;2.20;;;;;;;24.46;54.39;100126.25;7312454;19;130602;-40
2022/07/08 00:05:27;;;;;;;25.57;2.83;;;;;;;24.45;55.26;100124.59;7319612;19;129395;-38
2022/07/08 00:07:53;;;;;;;15.67;1.90;;;;;;;24.47;54.99;100124.44;7317734;19;129239;-41
2022/07/08 00:10:18;;;;;;;18.08;2.22;;;;;;;24.46;54.33;100120.19;7319127;19;130477;-40
2022/07/08 00:12:44;;;;;;;30.13;3.10;;;;;;;24.45;55.04;100118.50;7318474;19;131031;-39
2022/07/08 00:15:10;;;;;;;11.07;1.60;;;;;;;24.46;54.89;100115.72;7319189;19;129245;-41
2022/07/08 00:17:36;;;;;;;19.98;2.47;;;;;;;24.46;54.79;100120.19;7317232;19;129613;-40
2022/07/08 00:20:03;;;;;;;21.50;2.40;;;;;;;24.46;54.27;100123.59;7317576;19;130140;-41
2022/07/08 00:22:28;;;;;;;;;;;;;;;24.53;56.85;100125.69;7319156;19;129514;-40
2022/07/08 00:24:54;;;;;;;19.87;2.20;;;;;;;24.48;54.48;100120.03;7317965;19;129404;-41
2022/07/08 00:27:19;;;;;;;17.13;2.00;;;;;;;24.46;55.70;100123.59;7315027;19;129667;-41
2022/07/08 00:29:44;;;;;;;18.90;2.25;;;;;;;24.45;54.42;100129.84;7318624;19;128954;-38
2022/07/08 00:32:10;;;;;;;16.55;1.70;;;;;;;24.45;54.26;100124.59;7318212;19;129216;-40
2022/07/08 00:34:35;;;;;;;41.07;4.47;;;;;;;24.46;54.60;100128.88;7316247;19;129244;-41
2022/07/08 00:37:02;;;;;;;25.10;2.83;;;;;;;24.46;55.20;100130.69;7316987;19;128723;-40
2022/07/08 00:39:27;;;;;;;32.13;3.40;;;;;;;24.46;54.87;100133.31;7317659;19;129727;-40
2022/07/08 00:41:53;;;;;;;20.70;2.30;;;;;;;24.43;54.84;100126.53;7317526;19;129232;-41
2022/07/08 00:44:18;;;;;;;22.30;2.50;;;;;;;24.44;54.76;100133.44;7315536;19;128884;-40
2022/07/08 00:46:44;;;;;;;24.33;2.50;;;;;;;24.45;54.78;100135.13;7316940;19;129979;-40
2022/07/08 00:49:09;;;;;;;20.37;2.37;;;;;;;24.45;54.50;100139.53;7316501;19;130119;-39
2022/07/08 00:51:35;;;;;;;18.00;1.97;;;;;;;24.46;53.88;100138.56;7317837;19;130514;-41
2022/07/08 00:54:01;;;;;;;17.50;1.93;;;;;;;24.38;54.77;100128.78;7315862;19;129158;-41
2022/07/08 00:56:27;;;;;;;25.88;2.95;;;;;;;24.44;53.92;100141.31;7314399;19;128829;-41
2022/07/08 00:58:54;;;;;;;27.67;2.55;;;;;;;24.43;53.91;100142.31;7314511;19;129948;-40
2022/07/08 01:01:21;;;;;;;22.17;2.35;;;;;;;24.44;54.28;100137.88;7317337;19;130527;-40
2022/07/08 01:03:46;;;;;;;;;;;;;;;24.49;57.43;100141.72;7316356;19;130487;-41
2022/07/08 01:06:12;;;;;;;21.48;2.20;;;;;;;24.45;54.34;100143.00;7316031;19;129042;-38
2022/07/08 01:08:39;;;;;;;5.60;1.10;;;;;;;24.42;54.52;100148.56;7317230;19;129064;-40
2022/07/08 01:11:06;;;;;;;20.90;2.42;;;;;;;24.44;55.37;100154.47;7317068;19;130949;-41
2022/07/08 01:13:32;;;;;;;10.93;1.83;;;;;;;24.44;55.37;100146.56;7316145;19;130528;-41
2022/07/08 01:15:58;;;;;;;31.67;3.58;;;;;;;24.44;54.99;100149.22;7310885;19;129322;-41
2022/07/08 01:18:29;;;;;;;15.05;2.13;;;;;;;24.44;56.79;100151.84;7313608;19;129107;-41
2022/07/08 01:20:55;;;;;;;22.58;2.35;;;;;;;24.34;55.09;100135.31;7317264;19;129754;-38
2022/07/08 01:23:20;;;;;;;12.10;1.87;;;;;;;24.44;55.20;100154.47;7315670;19;128864;-39
2022/07/08 01:25:46;;;;;;;8.40;1.10;;;;;;;24.42;54.89;100151.19;7316893;19;128869;-41
2022/07/08 01:28:13;;;;;;;39.83;4.38;;;;;;;24.43;54.33;100152.81;7309029;19;131005;-42
2022/07/08 01:30:38;;;;;;;17.55;1.80;;;;;;;24.41;53.85;100146.06;7316433;19;129274;-38
2022/07/08 01:33:03;;;;;;;27.00;2.83;;;;;;;24.44;54.54;100158.91;7310555;19;129567;-40
2022/07/08 01:35:29;;;;;;;21.73;2.73;;;;;;;24.43;54.34;100159.88;7316217;19;128923;-40
2022/07/08 01:37:54;;;;;;;61.97;5.97;;;;;;;24.43;55.53;100152.81;7312982;19;132251;-40
2022/07/08 01:40:20;;;;;;;30.52;2.88;;;;;;;24.43;54.07;100160.72;7315979;19;130168;-41
2022/07/08 01:42:45;;;;;;;14.07;1.93;;;;;;;24.40;54.52;100155.75;7314331;19;128883;-39
2022/07/08 01:45:11;;;;;;;27.93;3.00;;;;;;;24.44;54.74;100159.72;7315288;19;128868;-40
2022/07/08 01:47:36;;;;;;;20.42;2.80;;;;;;;24.43;54.68;100165.97;7315037;19;130673;-39
2022/07/08 01:50:02;;;;;;;23.20;2.38;;;;;;;24.36;54.60;100149.09;7315864;19;131425;-41
2022/07/08 01:52:28;;;;;;;19.27;2.20;;;;;;;24.42;55.11;100161.69;7316113;19;129166;-41
2022/07/08 01:54:53;;;;;;;20.53;2.43;;;;;;;24.34;54.17;100153.69;7316700;19;129284;-38
2022/07/08 01:57:21;;;;;;;19.23;1.90;;;;;;;24.43;54.23;100160.72;7314393;19;130164;-40
2022/07/08 01:59:48;;;;;;;19.20;1.88;;;;;;;24.43;54.88;100158.06;7315563;19;130432;-41
2022/07/08 02:02:15;;;;;;;20.50;2.50;;;;;;;24.44;54.01;100164.16;7315786;19;128913;-40
2022/07/08 02:04:41;;;;;;;22.40;2.28;;;;;;;24.42;55.63;100161.69;7312808;19;129240;-41
2022/07/08 02:07:07;;;;;;;31.30;3.47;;;;;;;24.43;54.99;100168.59;7313703;19;129068;-40
2022/07/08 02:09:33;;;;;;;7.30;1.30;;;;;;;24.42;54.39;100164.31;7315385;19;129260;-40
2022/07/08 02:14:43;;;;;;;14.32;2.00;;;;;;;24.42;54.68;100169.56;7311886;19;129106;-41
2022/07/08 02:17:09;;;;;;;18.73;2.13;;;;;;;24.41;54.38;100165.28;7313854;19;129815;-40
2022/07/08 02:19:34;;;;;;;17.93;1.90;;;;;;;24.34;54.33;100155.50;7315762;19;129848;-41
2022/07/08 02:22:00;;;;;;;20.10;2.23;;;;;;;24.40;54.95;100161.00;7315505;19;129067;-41
2022/07/08 02:24:26;;;;;;;21.83;2.30;;;;;;;24.43;54.64;100168.59;7312834;19;129995;-40
2022/07/08 02:26:51;;;;;;;29.63;3.03;;;;;;;24.43;54.49;100168.59;7311785;19;129568;-40
2022/07/08 02:29:17;;;;;;;22.77;2.83;;;;;;;24.43;54.15;100167.75;7313849;19;130368;-40
2022/07/08 02:31:42;;;;;;;21.30;2.13;;;;;;;24.43;55.08;100168.59;7315675;19;129353;-40
2022/07/08 02:34:07;;;;;;;16.58;1.77;;;;;;;24.42;55.25;100182.72;7313435;19;129286;-40
2022/07/08 02:36:33;;;;;;;17.98;1.98;;;;;;;24.42;54.39;100182.72;7314397;19;129205;-40
2022/07/08 02:38:58;;;;;;;22.43;2.63;;;;;;;24.40;54.92;100174.13;7309776;19;131041;-41
2022/07/08 02:41:23;;;;;;;21.30;2.25;;;;;;;24.42;54.10;100181.88;7312763;19;129353;-40
2022/07/08 02:43:49;;;;;;;28.23;3.00;;;;;;;24.43;55.42;100181.72;7312651;19;130371;-38
2022/07/08 02:46:14;;;;;;;20.10;2.60;;;;;;;24.41;54.93;100191.56;7313706;19;130790;-41
2022/07/08 02:48:40;;;;;;;31.97;3.20;;;;;;;24.43;54.71;100189.63;7313182;19;129766;-40
2022/07/08 02:51:05;;;;;;;30.67;3.08;;;;;;;24.42;54.88;100197.66;7314387;19;129275;-41
2022/07/08 02:53:31;;;;;;;29.42;2.88;;;;;;;24.41;54.54;100191.56;7312864;19;128941;-39
2022/07/08 02:55:57;;;;;;;30.03;3.23;;;;;;;24.34;54.56;100177.34;7310141;19;129443;-41
2022/07/08 04:06:11;;;;;;;56.65;5.05;;;;;;;23.04;57.00;100250.47;6554178;19;3382483;-41
2022/07/08 04:08:37;;;;;;;29.00;2.97;;;;;;;23.12;57.19;100250.66;7338977;19;131650;-39
2022/07/08 04:11:02;;;;;;;30.20;3.00;;;;;;;23.11;56.80;100239.34;7339454;19;130582;-38
2022/07/08 04:13:27;;;;;;;29.60;2.95;;;;;;;23.28;56.84;100255.41;7348237;19;128948;-38
2022/07/08 04:15:54;;;;;;;16.45;1.98;;;;;;;23.25;57.57;100246.00;7341374;19;131678;-39
2022/07/08 04:18:19;;;;;;;20.95;2.15;;;;;;;23.40;56.44;100260.44;7348371;19;129920;-39
2022/07/08 04:20:45;;;;;;;28.48;2.92;;;;;;;23.48;56.62;100263.22;7341831;19;130018;-40
2022/07/08 04:23:11;;;;;;;27.93;2.77;;;;;;;23.54;56.24;100262.66;7346531;19;128808;-39
2022/07/08 04:25:36;;;;;;;32.03;3.00;;;;;;;23.61;56.05;100266.41;7347006;19;129113;-38
2022/07/08 04:28:02;;;;;;;31.63;3.03;;;;;;;23.68;56.85;100270.16;7336379;19;129474;-39
2022/07/08 04:30:27;;;;;;;30.23;2.65;;;;;;;23.75;55.57;100275.69;7345884;19;129783;-39
2022/07/08 04:32:53;;;;;;;28.97;3.10;;;;;;;23.78;56.59;100276.25;7345856;19;129348;-38
2022/07/08 04:35:18;;;;;;;30.40;3.30;;;;;;;23.83;56.62;100274.00;7348337;19;129449;-38
2022/07/08 04:37:43;;;;;;;21.65;2.30;;;;;;;23.78;56.07;100260.50;7340517;19;131124;-40
2022/07/08 04:40:09;;;;;;;92.15;8.52;;;;;;;23.90;56.56;100275.13;7343715;19;129448;-42
2022/07/08 04:42:36;;;;;;;24.80;2.57;;;;;;;23.97;55.06;100281.50;7346343;19;131258;-38
2022/07/08 04:45:02;;;;;;;33.05;3.25;;;;;;;24.00;55.62;100280.41;7345956;19;130225;-41
2022/07/08 04:47:28;;;;;;;29.95;2.83;;;;;;;24.04;54.99;100287.88;7346024;19;131813;-40
2022/07/08 04:49:53;;;;;;;37.15;3.65;;;;;;;24.07;55.67;100284.16;7345778;19;128953;-38
2022/07/08 04:52:19;;;;;;;19.90;2.10;;;;;;;24.10;56.29;100287.31;7345419;19;129122;-39
2022/07/08 04:54:44;;;;;;;8.77;1.70;;;;;;;24.12;54.43;100290.66;7346616;19;130317;-39
2022/07/08 04:57:10;;;;;;;30.63;3.13;;;;;;;24.14;55.51;100296.59;7346087;19;129573;-38
2022/07/08 04:59:35;;;;;;;28.33;2.90;;;;;;;24.14;55.22;100293.97;7342888;19;128972;-39
2022/07/08 05:02:01;;;;;;;32.10;3.35;;;;;;;24.16;55.07;100294.63;7343778;19;129322;-39
2022/07/08 05:04:26;;;;;;;29.00;2.90;;;;;;;24.18;55.74;100303.22;7345379;19;130496;-39
2022/07/08 05:06:52;;;;;;;24.10;2.58;;;;;;;24.20;55.82;100303.91;7346268;19;129989;-39
2022/07/08 05:09:17;;;;;;;45.90;4.63;;;;;;;24.20;54.89;100303.91;7344790;19;128859;-40
2022/07/08 05:11:42;;;;;;;28.95;3.00;;;;;;;24.13;55.64;100294.13;7325787;19;129834;-39
2022/07/08 05:14:12;;;;;;;54.45;4.47;;;;;;;24.23;54.62;100314.16;7316177;19;130226;-39
2022/07/08 05:16:38;;;;;;;33.97;3.50;;;;;;;24.22;55.12;100317.75;7317598;19;131808;-39
2022/07/08 05:19:04;;;;;;;30.23;3.35;;;;;;;24.27;54.83;100325.22;7317954;19;129361;-39
2022/07/08 05:21:29;;;;;;;20.55;2.22;;;;;;;24.26;54.86;100321.75;7314009;19;128920;-39
2022/07/08 05:23:55;;;;;;;22.27;2.33;;;;;;;24.27;55.58;100326.06;7318255;19;130286;-40
2022/07/08 05:26:20;;;;;;;11.33;1.73;;;;;;;24.19;54.83;100310.16;7316713;19;129118;-39
2022/07/08 05:28:46;;;;;;;22.17;2.45;;;;;;;24.28;55.23;100327.69;7318054;19;129127;-38
2022/07/08 05:31:11;;;;;;;36.58;3.65;;;;;;;24.22;55.55;100316.91;7313827;19;130464;-39
2022/07/08 05:33:37;;;;;;;23.38;2.55;;;;;;;24.28;55.90;100332.94;7317186;19;130050;-38
2022/07/08 05:36:05;;;;;;;21.52;2.53;;;;;;;24.28;54.75;100338.22;7316932;19;131427;-38
2022/07/08 05:38:30;;;;;;;32.38;3.35;;;;;;;24.29;54.19;100342.50;7318115;19;129178;-39
2022/07/08 05:44:39;;;;;;;33.80;3.92;;;;;;;24.27;55.00;100346.22;7320570;19;129853;-68
2022/07/08 05:47:09;;;;;;;47.67;4.57;;;;;;;24.22;54.24;100351.91;7170191;19;3145674;-67
2022/07/08 05:49:36;;;;;;;29.85;3.33;;;;;;;24.22;55.84;100354.53;7340931;19;129482;-69
2022/07/08 05:52:02;;;;;;;;;;;;;;;24.29;57.04;100358.28;7346852;19;129452;-66
2022/07/08 05:54:28;;;;;;;24.80;3.35;;;;;;;24.24;54.72;100357.88;7345616;19;128739;-68
2022/07/08 05:56:53;;;;;;;26.43;3.13;;;;;;;24.25;55.38;100358.69;7349678;19;129275;-69
2022/07/08 05:59:19;;;;;;;14.43;2.20;;;;;;;24.22;54.31;100356.31;7348835;19;129006;-67
2022/07/08 06:01:44;;;;;;;21.80;3.08;;;;;;;24.18;54.90;100350.50;7349279;19;129449;-68
2022/07/08 06:04:10;;;;;;;22.73;2.83;;;;;;;24.24;55.42;100368.38;7344801;19;128795;-68
2022/07/08 06:06:35;;;;;;;23.87;3.03;;;;;;;24.24;55.28;100367.53;7346128;19;129215;-66
2022/07/08 06:09:00;;;;;;;25.52;3.15;;;;;;;24.26;55.01;100366.41;7349017;19;129732;-66
2022/07/08 06:11:26;;;;;;;18.15;3.10;;;;;;;24.25;54.48;100370.03;7347274;19;129096;-66
2022/07/08 06:13:53;;;;;;;26.08;2.80;;;;;;;24.26;54.71;100376.94;7345179;19;131567;-66
2022/07/08 06:16:19;;;;;;;27.35;3.13;;;;;;;24.17;55.60;100362.00;7344871;19;129839;-67
2022/07/08 06:18:50;;;;;;;518.45;40.85;;;;;;;24.22;54.88;100370.31;6965024;19;10000367;-65
2022/07/08 06:21:16;;;;;;;517.75;37.80;;;;;;;24.24;55.28;100373.63;6488694;19;10000766;-66
2022/07/08 06:23:42;;;;;;;;;;;;;;;24.37;57.45;100382.06;7340545;19;130485;-68
2022/07/08 06:26:07;;;;;;;41.97;4.27;;;;;;;24.35;55.71;100380.53;7344641;19;129016;-66
2022/07/08 06:28:32;;;;;;;36.55;3.67;;;;;;;24.34;54.81;100384.13;7345907;19;129734;-67
2022/07/08 06:30:58;;;;;;;33.10;3.50;;;;;;;24.23;55.31;100364.06;7344091;19;129548;-66
2022/07/08 06:33:23;;;;;;;43.03;4.28;;;;;;;24.33;55.85;100380.69;7342388;19;129642;-65
2022/07/08 06:35:49;;;;;;;29.77;3.60;;;;;;;24.33;54.94;100385.09;7343573;19;129388;-66
2022/07/08 06:38:14;;;;;;;41.05;4.07;;;;;;;24.32;54.81;100389.53;7344361;19;129081;-67
2022/07/08 06:40:39;;;;;;;42.88;4.50;;;;;;;24.31;54.49;100384.41;7342208;19;129925;-66
2022/07/08 06:43:05;;;;;;;43.77;4.30;;;;;;;24.31;55.51;100382.59;7342074;19;129762;-67
2022/07/08 06:45:32;;;;;;;22.30;2.73;;;;;;;24.31;54.80;100387.06;7340238;19;130158;-67
2022/07/08 06:48:01;;;;;;;33.83;4.15;;;;;;;24.25;56.04;100380.53;7341516;19;129800;-68
2022/07/08 06:50:27;;;;;;;30.77;3.35;;;;;;;24.19;53.88;100361.88;7342910;19;129139;-68
2022/07/08 06:52:53;;;;;;;21.92;3.15;;;;;;;24.29;55.38;100381.94;7343355;19;130028;-68
2022/07/08 06:55:18;;;;;;;31.02;3.60;;;;;;;24.21;54.59;100373.88;7322558;19;129278;-68
2022/07/08 06:57:44;;;;;;;25.08;3.47;;;;;;;24.28;54.83;100393.41;7310020;19;129501;-68
2022/07/08 07:00:10;;;;;;;38.53;4.22;;;;;;;24.31;54.02;100395.75;7316607;19;129888;-66
2022/07/08 07:02:36;;;;;;;46.70;5.22;;;;;;;24.31;54.24;100393.13;7315789;19;129688;-67
2022/07/08 07:05:01;;;;;;;24.43;2.87;;;;;;;24.30;54.16;100394.09;7319399;19;129237;-69
2022/07/08 07:07:27;;;;;;;21.80;2.40;;;;;;;24.22;54.62;100380.81;7317967;19;129133;-68
2022/07/08 07:09:53;;;;;;;29.27;3.58;;;;;;;24.30;55.49;100388.00;7318758;19;129107;-67
2022/07/08 07:12:18;;;;;;;25.93;2.70;;;;;;;24.29;53.93;100392.44;7318470;19;129939;-66
2022/07/08 07:14:44;;;;;;;27.20;3.07;;;;;;;24.30;54.66;100409.03;7317957;19;130197;-68
2022/07/08 07:17:09;;;;;;;27.47;3.03;;;;;;;24.29;54.57;100410.84;7318219;19;129433;-67
2022/07/08 07:19:34;;;;;;;30.47;3.50;;;;;;;24.30;55.34;100424.78;7317161;19;130051;-65
2022/07/08 07:22:00;;;;;;;25.97;3.13;;;;;;;24.18;54.73;100405.69;7318015;19;129109;-68
2022/07/08 07:24:25;;;;;;;28.90;3.37;;;;;;;24.26;55.17;100429.50;7315217;19;129038;-66
2022/07/08 07:26:51;;;;;;;25.93;3.00;;;;;;;24.27;55.57;100425.06;7318916;19;129714;-67
2022/07/08 07:29:16;;;;;;;28.67;3.25;;;;;;;24.28;55.41;100426.72;7316904;19;129095;-68
2022/07/08 07:31:42;;;;;;;22.60;2.87;;;;;;;24.25;54.73;100433.09;7318341;19;129168;-66
2022/07/08 07:34:07;;;;;;;27.95;3.25;;;;;;;24.27;54.88;100441.69;7317134;19;129029;-67
2022/07/08 07:36:33;;;;;;;13.88;2.22;;;;;;;24.26;55.44;100440.00;7315816;19;129070;-66
2022/07/08 07:38:58;;;;;;;29.43;3.60;;;;;;;24.26;55.02;100439.19;7316326;19;132793;-66
2022/07/08 07:41:24;;;;;;;13.95;2.05;;;;;;;24.26;55.39;100442.63;7317046;19;129061;-66
2022/07/08 07:43:49;;;;;;;24.38;2.90;;;;;;;24.16;55.38;100433.91;7316367;19;129176;-66
2022/07/08 07:46:15;;;;;;;26.98;3.13;;;;;;;24.24;55.43;100446.38;7315863;19;129321;-68
2022/07/08 07:48:40;;;;;;;23.57;2.97;;;;;;;24.25;55.56;100451.50;7317744;19;129276;-66
2022/07/08 07:51:06;;;;;;;26.42;3.05;;;;;;;24.25;55.09;100453.28;7315891;19;132165;-66
2022/07/08 07:53:31;;;;;;;36.05;3.92;;;;;;;24.25;55.07;100459.38;7316696;19;129712;-66
2022/07/08 07:55:59;;;;;;;32.20;3.22;;;;;;;24.22;54.40;100467.53;7316444;19;129870;-68
2022/07/08 07:58:25;;;;;;;29.40;3.35;;;;;;;24.25;54.70;100464.63;7317619;19;129182;-66
2022/07/08 08:00:51;;;;;;;22.13;2.65;;;;;;;24.23;55.29;100460.47;7317236;19;129789;-66
2022/07/08 08:03:17;;;;;;;35.92;3.95;;;;;;;24.25;55.16;100469.03;7314222;19;129823;-68
2022/07/08 08:05:42;;;;;;;23.13;2.80;;;;;;;24.25;55.12;100472.50;7313973;19;129188;-67
2022/07/08 08:08:09;;;;;;;27.40;2.93;;;;;;;24.25;55.12;100467.25;7313838;19;129072;-67
2022/07/08 08:10:35;;;;;;;20.65;2.35;;;;;;;24.25;55.10;100471.69;7314815;19;132986;-66
2022/07/08 08:13:01;;;;;;;28.55;3.33;;;;;;;24.24;54.72;100473.50;7315751;19;129191;-68
2022/07/08 08:15:29;;;;;;;24.20;2.67;;;;;;;24.25;54.93;100479.56;7315680;19;129329;-66
2022/07/08 08:17:56;;;;;;;30.70;3.20;;;;;;;24.25;54.38;100480.41;7314586;19;129809;-66
2022/07/08 08:20:24;;;;;;;27.85;3.00;;;;;;;24.21;55.56;100481.63;7316859;19;129155;-67
2022/07/08 08:22:51;;;;;;;37.47;3.67;;;;;;;24.24;54.87;100478.75;7316382;19;128854;-68
2022/07/08 08:25:17;;;;;;;23.40;2.80;;;;;;;24.23;54.34;100482.31;7314706;19;129781;-68
2022/07/08 08:27:43;;;;;;;23.08;2.92;;;;;;;24.25;55.60;100483.03;7317514;19;129945;-67
2022/07/08 08:30:09;;;;;;;22.40;3.05;;;;;;;24.25;55.33;100482.19;7316580;19;129220;-67
2022/07/08 08:32:34;;;;;;;46.28;4.30;;;;;;;24.25;54.78;100475.13;7315835;19;129516;-65
2022/07/08 08:35:00;;;;;;;25.98;2.92;;;;;;;24.22;55.37;100475.41;7316066;19;129021;-68
2022/07/08 08:37:25;;;;;;;23.20;2.47;;;;;;;24.15;54.96;100458.53;7316908;19;129436;-66
2022/07/08 08:39:52;;;;;;;20.50;2.60;;;;;;;24.24;55.01;100484.00;7316038;19;129111;-66
2022/07/08 08:42:18;;;;;;;25.88;3.35;;;;;;;24.25;55.30;100485.66;7312345;19;128963;-40
2022/07/08 08:44:44;;;;;;;;;;;;;;;24.30;56.98;100488.72;7313648;19;129564;-39
2022/07/08 08:47:12;;;;;;;24.27;2.85;;;;;;;24.25;54.68;100490.91;7315558;19;131039;-39
2022/07/08 08:49:39;;;;;;;20.25;2.75;;;;;;;24.23;55.58;100487.56;7314576;19;129176;-40
2022/07/08 08:52:09;;;;;;;27.48;3.90;;;;;;;24.23;53.95;100487.56;7311051;19;129260;-39
2022/07/08 08:54:35;;;;;;;20.63;2.90;;;;;;;24.22;54.99;100495.59;7314283;19;128739;-39
2022/07/08 08:57:01;;;;;;;27.03;3.10;;;;;;;24.14;55.27;100471.81;7312596;19;129656;-40
2022/07/08 08:59:28;;;;;;;15.98;2.60;;;;;;;24.21;55.70;100494.75;7314944;19;130328;-41
2022/07/08 09:01:54;;;;;;;;;;;;;;;24.27;56.86;100488.97;7314183;19;129171;-40
2022/07/08 09:04:20;;;;;;;67.40;6.88;;;;;;;24.21;54.96;100489.50;7308741;19;129575;-40
2022/07/08 09:06:45;;;;;;;18.02;2.70;;;;;;;24.22;54.40;100492.97;7314226;19;129061;-39
2022/07/08 09:09:11;;;;;;;38.77;4.10;;;;;;;24.20;55.14;100493.09;7313806;19;129627;-40
2022/07/08 09:11:39;;;;;;;20.13;3.03;;;;;;;24.20;56.06;100498.38;7310871;19;129581;-40
2022/07/08 09:14:30;;;;;;;19.30;2.70;;;;;;;24.21;57.29;100494.75;7314970;19;129324;-40
2022/07/08 09:17:17;;;;;;;21.70;3.10;;;;;;;24.14;56.90;100482.31;7310845;19;130622;-40
2022/07/08 09:19:44;;;;;;;15.18;2.08;;;;;;;24.19;55.41;100501.97;7314392;19;130307;-40
2022/07/08 09:22:10;;;;;;;21.20;3.03;;;;;;;24.18;53.96;100500.28;7312343;19;130399;-40
2022/07/08 09:24:39;;;;;;;13.77;1.85;;;;;;;24.19;55.00;100491.47;7310970;19;128868;-41
2022/07/08 09:27:08;;;;;;;19.33;2.58;;;;;;;24.19;56.35;100486.19;7314329;19;130170;-41
2022/07/08 09:29:35;;;;;;;25.75;3.45;;;;;;;24.17;54.84;100488.13;7313502;19;129671;-40
2022/07/08 09:32:11;;;;;;;21.98;2.63;;;;;;;24.18;56.60;100489.78;7312402;19;129127;-40
2022/07/08 09:34:37;;;;;;;27.02;3.15;;;;;;;24.17;55.60;100493.38;7312934;19;128954;-39
2022/07/08 09:37:11;;;;;;;19.43;3.27;;;;;;;24.16;56.87;100491.69;7313451;19;130186;-39
2022/07/08 09:39:37;;;;;;;23.55;3.20;;;;;;;24.18;54.96;100497.66;7312872;19;129421;-40
2022/07/08 09:42:05;;;;;;;25.38;2.97;;;;;;;24.16;55.17;100496.97;7311416;19;129140;-38
2022/07/08 09:44:30;;;;;;;25.38;2.97;;;;;;;24.17;55.04;100497.78;7311101;19;129069;-38
2022/07/08 09:46:56;;;;;;;18.98;2.83;;;;;;;24.18;54.96;100499.47;7312985;19;129149;-40
2022/07/08 09:49:28;;;;;;;18.33;2.63;;;;;;;24.17;56.66;100509.16;7313267;19;129510;-40
2022/07/08 09:51:54;;;;;;;29.65;3.42;;;;;;;24.18;54.86;100505.53;7311354;19;129150;-41
2022/07/08 09:54:20;;;;;;;25.93;3.00;;;;;;;24.17;54.83;100509.16;7313010;19;129223;-40
2022/07/08 09:57:03;;;;;;;17.63;2.15;;;;;;;24.18;57.18;100505.53;7313051;19;131042;-40
2022/07/08 09:59:30;;;;;;;20.00;2.58;;;;;;;24.17;55.09;100503.91;7313808;19;129246;-40
2022/07/08 10:01:56;;;;;;;24.35;2.95;;;;;;;24.16;55.11;100504.84;7311205;19;128892;-40
2022/07/08 10:04:23;;;;;;;19.87;2.80;;;;;;;24.17;55.27;100503.91;7310848;19;129361;-40
2022/07/08 10:06:53;;;;;;;21.92;3.03;;;;;;;24.15;54.83;100500.56;7311318;19;130178;-38
2022/07/08 10:09:20;;;;;;;31.20;3.53;;;;;;;24.16;54.84;100507.47;7311743;19;129110;-39
2022/07/08 10:11:49;;;;;;;16.50;2.25;;;;;;;24.16;55.21;100501.41;7308976;19;129915;-40
2022/07/08 10:14:16;;;;;;;9.45;1.83;;;;;;;24.17;54.04;100501.25;7312273;19;129586;-40
2022/07/08 10:16:42;;;;;;;29.00;3.15;;;;;;;24.18;55.56;100502.91;7309760;19;130462;-39
2022/07/08 10:19:38;;;;;;;17.48;2.22;;;;;;;24.17;57.20;100503.91;7313126;19;129061;-39
2022/07/08 10:22:07;;;;;;;21.88;2.40;;;;;;;24.17;55.07;100509.16;7308476;19;129152;-41
2022/07/08 10:24:38;;;;;;;18.30;2.22;;;;;;;24.18;56.06;100518.69;7310137;19;128863;-40
2022/07/08 10:27:04;;;;;;;20.52;2.58;;;;;;;24.16;54.47;100520.59;7309889;19;129525;-39
2022/07/08 10:29:31;;;;;;;22.33;2.72;;;;;;;24.16;55.28;100531.13;7313101;19;129270;-40
2022/07/08 10:31:57;;;;;;;23.15;2.90;;;;;;;24.17;54.21;100527.53;7315536;19;129096;-39
2022/07/08 10:34:33;;;;;;;19.33;2.10;;;;;;;24.17;56.47;100522.28;7319205;19;129389;-40
2022/07/08 10:37:01;;;;;;;17.70;2.20;;;;;;;24.16;54.67;100512.72;7316533;19;129559;-40
2022/07/08 10:39:27;;;;;;;17.05;2.45;;;;;;;24.16;55.03;100517.97;7319422;19;129353;-39
2022/07/08 10:42:04;;;;;;;19.67;2.57;;;;;;;24.16;55.75;100525.88;7315187;19;129148;-40
2022/07/08 10:44:45;;;;;;;22.42;3.00;;;;;;;24.17;56.41;100527.53;7316345;19;130164;-40
2022/07/08 10:47:11;;;;;;;17.48;2.13;;;;;;;24.15;54.06;100521.59;7316246;19;130036;-40
2022/07/08 10:49:44;;;;;;;21.75;2.40;;;;;;;24.16;56.49;100523.22;7318049;19;129227;-39
2022/07/08 10:52:10;;;;;;;19.90;2.55;;;;;;;24.14;53.59;100521.72;7315061;19;128823;-40
2022/07/08 10:54:37;;;;;;;28.40;2.97;;;;;;;24.15;54.85;100521.59;7317672;19;129225;-41
2022/07/08 10:57:22;;;;;;;19.00;2.15;;;;;;;24.17;56.80;100524.91;7315721;19;130083;-39
2022/07/08 11:00:13;;;;;;;20.70;2.80;;;;;;;24.16;56.32;100527.69;7316589;19;129659;-40
2022/07/08 11:02:42;;;;;;;32.58;3.72;;;;;;;24.15;55.24;100521.59;7313078;19;129840;-41
2022/07/08 11:05:34;;;;;;;25.25;3.00;;;;;;;24.16;57.14;100533.75;7315022;19;128897;-39
2022/07/08 11:08:18;;;;;;;16.98;2.53;;;;;;;24.16;56.80;100522.41;7316877;19;130087;-41
2022/07/08 11:10:44;;;;;;;39.53;4.03;;;;;;;24.15;54.52;100529.47;7316024;19;129446;-39
2022/07/08 11:13:10;;;;;;;20.27;2.53;;;;;;;24.15;54.50;100534.72;7316819;19;129967;-41
2022/07/08 11:15:36;;;;;;;40.13;3.90;;;;;;;24.15;54.77;100529.47;7317172;19;128887;-38
2022/07/08 11:18:02;;;;;;;19.40;2.60;;;;;;;24.14;53.99;100535.69;7315147;19;129675;-38
2022/07/08 11:20:30;;;;;;;20.48;2.55;;;;;;;24.14;55.79;100543.59;7317604;19;129806;-40
2022/07/08 11:22:56;;;;;;;16.73;2.17;;;;;;;24.14;54.92;100551.47;7314172;19;129042;-41
2022/07/08 11:25:22;;;;;;;17.05;2.08;;;;;;;24.12;53.90;100556.00;7316170;19;130424;-41
2022/07/08 11:27:47;;;;;;;13.52;2.03;;;;;;;24.14;54.64;100551.47;7313786;19;129670;-38
2022/07/08 11:30:16;;;;;;;14.70;2.20;;;;;;;24.13;53.65;100554.22;7317770;19;129642;-40
2022/07/08 11:32:42;;;;;;;25.48;3.03;;;;;;;24.09;53.52;100561.53;7312312;19;130687;-39
2022/07/08 11:35:09;;;;;;;18.65;2.15;;;;;;;24.13;55.12;100549.78;7317201;19;129955;-39
2022/07/08 11:37:42;;;;;;;25.45;2.78;;;;;;;24.13;55.75;100560.28;7314764;19;129296;-40
2022/07/08 11:40:08;;;;;;;19.65;2.55;;;;;;;24.13;54.17;100560.28;7317111;19;129163;-40
2022/07/08 11:42:37;;;;;;;39.17;4.32;;;;;;;24.04;55.95;100552.38;7311928;19;131872;-38
2022/07/08 11:45:04;;;;;;;20.30;2.85;;;;;;;24.10;54.11;100568.44;7315068;19;129390;-39
2022/07/08 11:47:30;;;;;;;18.27;2.20;;;;;;;24.13;54.39;100562.91;7317378;19;130194;-40
2022/07/08 11:49:56;;;;;;;6.63;1.55;;;;;;;24.12;54.30;100569.16;7316888;19;130003;-40
2022/07/08 11:52:21;;;;;;;24.25;2.88;;;;;;;24.13;54.16;100570.00;7315010;19;129196;-37
2022/07/08 11:54:48;;;;;;;19.98;2.35;;;;;;;24.13;53.29;100564.72;7316650;19;128855;-40
2022/07/08 11:57:15;;;;;;;27.65;3.30;;;;;;;24.13;54.58;100562.09;7315032;19;129609;-40
2022/07/08 11:59:44;;;;;;;18.42;2.22;;;;;;;24.13;54.99;100557.66;7316107;19;130322;-38
2022/07/08 12:02:10;;;;;;;22.65;2.47;;;;;;;24.12;53.34;100552.53;7315695;19;129674;-39
2022/07/08 12:04:36;;;;;;;22.92;2.58;;;;;;;24.14;53.77;100550.63;7313785;19;129128;-39
2022/07/08 12:07:18;;;;;;;20.27;2.45;;;;;;;24.10;53.84;100550.06;7316331;19;130226;-39
2022/07/08 12:09:52;;;;;;;22.00;2.60;;;;;;;24.13;55.95;100544.53;7316041;19;129822;-39
2022/07/08 12:12:21;;;;;;;22.88;2.47;;;;;;;24.11;54.75;100546.44;7313334;19;128871;-38
2022/07/08 12:14:46;;;;;;;14.98;1.77;;;;;;;24.11;53.84;100541.19;7316331;19;128666;-40
2022/07/08 12:17:22;;;;;;;23.45;2.70;;;;;;;24.12;56.09;100540.25;7315757;19;129626;-39
2022/07/08 12:19:47;;;;;;;18.13;2.03;;;;;;;24.10;53.60;100544.78;7315582;19;130996;-39
2022/07/08 12:22:13;;;;;;;29.20;3.42;;;;;;;24.12;54.80;100542.88;7310560;19;129504;-39
2022/07/08 12:24:40;;;;;;;18.53;2.27;;;;;;;24.12;54.31;100528.91;7314007;19;128990;-40